LPPD/PDL METAR and TAF weather

Enter ICAO airport designator
Station Type Date Time Source
LPPD METAR 2018/12/10 12:30 UTC NOAA

LPPD 101230Z 21013KT 9000 SCT006 BKN015 18/17 Q1022


Station Type Date Time Source
LPPD Decoded METAR 2018/12/10 12:30 UTC NOAA

Ponta Delgada / Nordela Acores , Portugal (LPPD) 37-44N 025-42W 72M
Dec 10, 2018 - 07:30 AM EST / 2018.12.10 1230 UTC
Wind: from the SSW (210 degrees) at 15 MPH (13 KT):0
Visibility: 5 mile(s):0
Sky conditions: mostly cloudy
Temperature: 64 F (18 C)
Dew Point: 62 F (17 C)
Relative Humidity: 93%
Pressure (altimeter): 30.18 in. Hg (1022 hPa)
ob: LPPD 101230Z 21013KT 9000 SCT006 BKN015 18/17 Q1022
cycle: 12

Station Type Date Time Source
LPPD TAF 2018/12/10 12:18 UTC NOAA

TAF LPPD 101100Z 1012/1112 21015KT 9999 SCT006 SCT012
TEMPO 1012/1020 3000 DZRA BR SCT002 BKN005
BECMG 1020/1023 35008KT FEW020
TEMPO 1023/1112 BKN015
BECMG 1110/1112 15008KT


Example: see airport list